createdAt,value
2023-02-19T00:00:02.660Z,1008.83
2023-02-19T00:01:02.673Z,1008.82
2023-02-19T00:02:02.704Z,1008.78
2023-02-19T00:03:02.695Z,1008.83
2023-02-19T00:04:02.710Z,1008.78
2023-02-19T00:05:02.804Z,1008.83
2023-02-19T00:06:02.726Z,1008.85
2023-02-19T00:07:02.739Z,1008.83
2023-02-19T00:08:02.752Z,1008.82
2023-02-19T00:09:02.759Z,1008.82
2023-02-19T00:10:02.777Z,1008.82
2023-02-19T00:11:02.780Z,1008.82
2023-02-19T00:12:02.793Z,1008.81
2023-02-19T00:13:02.820Z,1008.83
2023-02-19T00:14:02.815Z,1008.79
2023-02-19T00:15:02.825Z,1008.79
2023-02-19T00:16:02.878Z,1008.81
2023-02-19T00:17:02.850Z,1008.78
2023-02-19T00:18:02.857Z,1008.80
2023-02-19T00:19:02.867Z,1008.83
2023-02-19T00:20:02.887Z,1008.81
2023-02-19T00:21:02.896Z,1008.82
2023-02-19T00:22:02.902Z,1008.79
2023-02-19T00:23:02.910Z,1008.83
2023-02-19T00:24:02.939Z,1008.81
2023-02-19T00:25:02.940Z,1008.78
2023-02-19T00:26:17.153Z,1008.82
2023-02-19T00:27:02.957Z,1008.78
2023-02-19T00:28:02.973Z,1008.80
2023-02-19T00:29:03.016Z,1008.78
2023-02-19T00:30:03.023Z,1008.71
2023-02-19T00:31:03.020Z,1008.71
2023-02-19T00:32:03.056Z,1008.63
2023-02-19T00:33:03.037Z,1008.61
2023-02-19T00:34:03.068Z,1008.62
2023-02-19T00:35:03.045Z,1008.59
2023-02-19T00:36:03.059Z,1008.57
2023-02-19T00:37:03.072Z,1008.63
2023-02-19T00:38:03.080Z,1008.62
2023-02-19T00:39:03.101Z,1008.58
2023-02-19T00:40:03.105Z,1008.60
2023-02-19T00:41:03.114Z,1008.59
2023-02-19T00:42:03.123Z,1008.57
2023-02-19T00:43:03.137Z,1008.56
2023-02-19T00:44:03.152Z,1008.53
2023-02-19T00:45:03.176Z,1008.55
2023-02-19T00:46:03.180Z,1008.56
2023-02-19T00:47:03.180Z,1008.58
2023-02-19T00:48:03.196Z,1008.55
2023-02-19T00:49:03.202Z,1008.63
2023-02-19T00:50:03.213Z,1008.62
2023-02-19T00:51:03.225Z,1008.61
2023-02-19T00:52:03.233Z,1008.61
2023-02-19T00:53:03.246Z,1008.60
2023-02-19T00:54:03.260Z,1008.54
2023-02-19T00:55:03.275Z,1008.51
2023-02-19T00:56:03.279Z,1008.52
2023-02-19T00:57:03.292Z,1008.49
2023-02-19T00:58:03.302Z,1008.44
2023-02-19T00:59:03.313Z,1008.41
2023-02-19T01:00:03.324Z,1008.40
2023-02-19T01:01:03.339Z,1008.42
2023-02-19T01:02:03.345Z,1008.37
2023-02-19T01:03:03.358Z,1008.38
2023-02-19T01:04:06.182Z,1008.39
2023-02-19T01:05:03.378Z,1008.39
2023-02-19T01:06:03.393Z,1008.35
2023-02-19T01:07:03.403Z,1008.35
2023-02-19T01:08:03.410Z,1008.40
2023-02-19T01:09:03.422Z,1008.38
2023-02-19T01:10:03.430Z,1008.34
2023-02-19T01:11:03.458Z,1008.39
2023-02-19T01:12:03.457Z,1008.42
2023-02-19T01:13:03.466Z,1008.37
2023-02-19T01:14:03.528Z,1008.35
2023-02-19T01:15:03.488Z,1008.37
2023-02-19T01:16:03.536Z,1008.37
2023-02-19T01:17:03.505Z,1008.31
2023-02-19T01:18:03.515Z,1008.31
2023-02-19T01:19:03.531Z,1008.34
2023-02-19T01:20:03.538Z,1008.27
2023-02-19T01:21:03.549Z,1008.21
2023-02-19T01:22:03.560Z,1008.19
2023-02-19T01:23:03.568Z,1008.18
2023-02-19T01:24:03.582Z,1008.02
2023-02-19T01:25:03.593Z,1007.94
2023-02-19T01:26:03.604Z,1007.88
2023-02-19T01:27:03.613Z,1007.78
2023-02-19T01:28:03.625Z,1007.69
2023-02-19T01:29:03.643Z,1007.74
2023-02-19T01:30:03.703Z,1007.77
2023-02-19T01:31:03.712Z,1007.87
2023-02-19T01:32:03.878Z,1007.91
2023-02-19T01:33:03.678Z,1007.95
2023-02-19T01:34:03.703Z,1007.93
2023-02-19T01:35:03.706Z,1007.96
2023-02-19T01:36:03.710Z,1008.00
2023-02-19T01:37:03.723Z,1008.02
2023-02-19T01:38:03.738Z,1008.04
2023-02-19T01:39:03.759Z,1008.02
2023-02-19T01:40:03.767Z,1007.99
2023-02-19T01:41:03.768Z,1007.98
2023-02-19T01:42:03.778Z,1007.97
2023-02-19T01:43:03.786Z,1007.94
2023-02-19T01:44:03.812Z,1007.94
2023-02-19T01:45:03.813Z,1007.91
2023-02-19T01:46:03.824Z,1007.88
2023-02-19T01:47:03.835Z,1007.91
2023-02-19T01:48:03.846Z,1007.88
2023-02-19T01:49:03.856Z,1007.89
2023-02-19T01:50:03.865Z,1007.82
2023-02-19T01:51:03.885Z,1007.78
2023-02-19T01:52:03.887Z,1007.76
2023-02-19T01:53:03.900Z,1007.78
2023-02-19T01:54:03.908Z,1007.72
2023-02-19T01:55:03.925Z,1007.73
2023-02-19T01:56:03.948Z,1007.75
2023-02-19T01:57:03.942Z,1007.74
2023-02-19T01:58:03.953Z,1007.72
2023-02-19T01:59:03.972Z,1007.66
2023-02-19T02:00:03.975Z,1007.64
2023-02-19T02:01:04.040Z,1007.68
2023-02-19T02:02:04.011Z,1007.70
2023-02-19T02:03:04.007Z,1007.68
2023-02-19T02:04:04.017Z,1007.68
2023-02-19T02:05:04.028Z,1007.64
2023-02-19T02:06:04.041Z,1007.57
2023-02-19T02:07:04.050Z,1007.64
2023-02-19T02:08:04.062Z,1007.57
2023-02-19T02:09:04.072Z,1007.62
2023-02-19T02:10:04.081Z,1007.57
2023-02-19T02:11:04.091Z,1007.51
2023-02-19T02:12:04.107Z,1007.51
2023-02-19T02:13:04.115Z,1007.51
2023-02-19T02:14:04.128Z,1007.57
2023-02-19T02:15:04.137Z,1007.59
2023-02-19T02:16:04.231Z,1007.67
2023-02-19T02:17:04.161Z,1007.64
2023-02-19T02:18:04.170Z,1007.67
2023-02-19T02:19:04.185Z,1007.63
2023-02-19T02:20:04.199Z,1007.64
2023-02-19T02:21:04.203Z,1007.64
2023-02-19T02:22:04.230Z,1007.60
2023-02-19T02:23:04.226Z,1007.64
2023-02-19T02:24:04.239Z,1007.62
2023-02-19T02:25:04.270Z,1007.59
2023-02-19T02:26:04.262Z,1007.61
2023-02-19T02:27:04.284Z,1007.63
2023-02-19T02:28:04.288Z,1007.62
2023-02-19T02:29:04.286Z,1007.65
2023-02-19T02:30:04.360Z,1007.63
2023-02-19T02:31:04.468Z,1007.60
2023-02-19T02:32:04.409Z,1007.63
2023-02-19T02:33:04.336Z,1007.65
2023-02-19T02:34:04.346Z,1007.65
2023-02-19T02:35:04.352Z,1007.62
2023-02-19T02:36:04.362Z,1007.55
2023-02-19T02:37:04.380Z,1007.59
2023-02-19T02:38:04.383Z,1007.55
2023-02-19T02:39:04.392Z,1007.54
2023-02-19T02:40:04.405Z,1007.51
2023-02-19T02:41:04.418Z,1007.54
2023-02-19T02:42:04.425Z,1007.41
2023-02-19T02:43:04.443Z,1007.45
2023-02-19T02:44:04.445Z,1007.44
2023-02-19T02:45:04.459Z,1007.45
2023-02-19T02:46:04.535Z,1007.45
2023-02-19T02:47:04.479Z,1007.43
2023-02-19T02:48:04.489Z,1007.43
2023-02-19T02:49:04.496Z,1007.40
2023-02-19T02:50:04.508Z,1007.41
2023-02-19T02:51:04.522Z,1007.42
2023-02-19T02:52:04.530Z,1007.45
2023-02-19T02:53:04.538Z,1007.47
2023-02-19T02:54:04.547Z,1007.48
2023-02-19T02:55:04.565Z,1007.45
2023-02-19T02:56:04.568Z,1007.46
2023-02-19T02:57:04.594Z,1007.48
2023-02-19T02:58:04.599Z,1007.47
2023-02-19T02:59:04.611Z,1007.52
2023-02-19T03:00:04.611Z,1007.50
2023-02-19T03:01:04.654Z,1007.53
2023-02-19T03:02:04.674Z,1007.56
2023-02-19T03:03:04.647Z,1007.59
2023-02-19T03:04:04.654Z,1007.52
2023-02-19T03:05:04.665Z,1007.53
2023-02-19T03:06:04.686Z,1007.51
2023-02-19T03:07:04.686Z,1007.50
2023-02-19T03:08:04.700Z,1007.50
2023-02-19T03:09:04.704Z,1007.50
2023-02-19T03:10:04.713Z,1007.52
2023-02-19T03:11:04.722Z,1007.53
2023-02-19T03:12:04.733Z,1007.55
2023-02-19T03:13:04.751Z,1007.54
2023-02-19T03:14:04.755Z,1007.54
2023-02-19T03:15:04.768Z,1007.54
2023-02-19T03:16:04.781Z,1007.61
2023-02-19T03:17:04.785Z,1007.62
2023-02-19T03:18:04.798Z,1007.58
2023-02-19T03:19:04.803Z,1007.66
2023-02-19T03:20:04.858Z,1007.67
2023-02-19T03:21:04.825Z,1007.68
2023-02-19T03:22:04.833Z,1007.67
2023-02-19T03:23:04.843Z,1007.65
2023-02-19T03:24:04.863Z,1007.71
2023-02-19T03:25:04.862Z,1007.72
2023-02-19T03:26:04.871Z,1007.71
2023-02-19T03:27:04.881Z,1007.77
2023-02-19T03:28:04.893Z,1007.74
2023-02-19T03:29:04.901Z,1007.71
2023-02-19T03:30:04.991Z,1007.72
2023-02-19T03:31:04.932Z,1007.73
2023-02-19T03:32:05.109Z,1007.70
2023-02-19T03:33:04.940Z,1007.71
2023-02-19T03:34:04.948Z,1007.70
2023-02-19T03:35:04.960Z,1007.72
2023-02-19T03:36:04.971Z,1007.74
2023-02-19T03:37:04.986Z,1007.72
2023-02-19T03:38:04.989Z,1007.70
2023-02-19T03:39:04.999Z,1007.69
2023-02-19T03:40:05.009Z,1007.79
2023-02-19T03:41:05.027Z,1007.78
2023-02-19T03:42:05.033Z,1007.77
2023-02-19T03:43:05.036Z,1007.83
2023-02-19T03:44:05.048Z,1007.82
2023-02-19T03:45:05.058Z,1007.79
2023-02-19T03:46:05.130Z,1007.80
2023-02-19T03:47:05.074Z,1007.83
2023-02-19T03:48:05.087Z,1007.78
2023-02-19T03:49:05.106Z,1007.82
2023-02-19T03:50:05.101Z,1007.76
2023-02-19T03:51:05.134Z,1007.79
2023-02-19T03:52:05.126Z,1007.84
2023-02-19T03:53:05.130Z,1007.82
2023-02-19T03:54:05.141Z,1007.83
2023-02-19T03:55:05.149Z,1007.87
2023-02-19T03:56:05.162Z,1007.97
2023-02-19T03:57:05.181Z,1007.89
2023-02-19T03:58:05.182Z,1007.94
2023-02-19T03:59:05.185Z,1007.94
2023-02-19T04:00:05.197Z,1007.96
2023-02-19T04:01:05.207Z,1008.00
2023-02-19T04:02:05.293Z,1007.97
2023-02-19T04:03:05.225Z,1008.03
2023-02-19T04:04:05.237Z,1008.01
2023-02-19T04:05:05.244Z,1008.06
2023-02-19T04:06:05.251Z,1008.05
2023-02-19T04:07:05.262Z,1008.08
2023-02-19T04:08:05.269Z,1008.07
2023-02-19T04:09:05.283Z,1008.12
2023-02-19T04:10:05.302Z,1008.14
2023-02-19T04:11:05.302Z,1008.01
2023-02-19T04:12:05.307Z,1008.04
2023-02-19T04:13:05.315Z,1008.04
2023-02-19T04:14:05.323Z,1008.10
2023-02-19T04:15:05.333Z,1008.08
2023-02-19T04:16:05.345Z,1008.10
2023-02-19T04:17:05.362Z,1008.07
2023-02-19T04:18:05.378Z,1008.12
2023-02-19T04:19:05.375Z,1008.15
2023-02-19T04:20:05.384Z,1008.10
2023-02-19T04:21:05.385Z,1008.16
2023-02-19T04:22:05.403Z,1008.14
2023-02-19T04:23:05.402Z,1008.21
2023-02-19T04:24:05.415Z,1008.16
2023-02-19T04:25:05.423Z,1008.21
2023-02-19T04:26:05.430Z,1008.27
2023-02-19T04:27:05.436Z,1008.25
2023-02-19T04:28:05.447Z,1008.25
2023-02-19T04:29:05.450Z,1008.35
2023-02-19T04:30:05.568Z,1008.35
2023-02-19T04:31:05.480Z,1008.39
2023-02-19T04:32:05.509Z,1008.39
2023-02-19T04:33:05.484Z,1008.38
2023-02-19T04:34:05.498Z,1008.37
2023-02-19T04:35:05.501Z,1008.40
2023-02-19T04:36:05.510Z,1008.34
2023-02-19T04:37:05.516Z,1008.40
2023-02-19T04:38:05.528Z,1008.35
2023-02-19T04:39:05.534Z,1008.41
2023-02-19T04:40:05.563Z,1008.48
2023-02-19T04:41:05.554Z,1008.44
2023-02-19T04:42:05.589Z,1008.45
2023-02-19T04:43:05.566Z,1008.43
2023-02-19T04:44:05.573Z,1008.40
2023-02-19T04:45:05.583Z,1008.43
2023-02-19T04:46:05.625Z,1008.44
2023-02-19T04:47:05.598Z,1008.45
2023-02-19T04:48:05.613Z,1008.42
2023-02-19T04:49:05.616Z,1008.46
2023-02-19T04:50:05.627Z,1008.41
2023-02-19T04:51:05.632Z,1008.42
2023-02-19T04:52:05.641Z,1008.41
2023-02-19T04:53:05.649Z,1008.43
2023-02-19T04:54:05.657Z,1008.48
2023-02-19T04:55:05.667Z,1008.41
2023-02-19T04:56:05.675Z,1008.46
2023-02-19T04:57:05.683Z,1008.42
2023-02-19T04:58:05.701Z,1008.47
2023-02-19T04:59:05.698Z,1008.47
2023-02-19T05:00:05.723Z,1008.47
2023-02-19T05:01:05.715Z,1008.50
2023-02-19T05:02:05.726Z,1008.51
2023-02-19T05:03:05.737Z,1008.51
2023-02-19T05:04:05.766Z,1008.50
2023-02-19T05:05:05.750Z,1008.52
2023-02-19T05:06:05.759Z,1008.50
2023-02-19T05:07:05.767Z,1008.58
2023-02-19T05:08:05.781Z,1008.51
2023-02-19T05:09:05.784Z,1008.48
2023-02-19T05:10:05.797Z,1008.53
2023-02-19T05:11:05.806Z,1008.51
2023-02-19T05:12:05.809Z,1008.48
2023-02-19T05:13:05.827Z,1008.50
2023-02-19T05:14:05.829Z,1008.47
2023-02-19T05:15:05.838Z,1008.56
2023-02-19T05:16:05.875Z,1008.52
2023-02-19T05:17:05.852Z,1008.55
2023-02-19T05:18:05.858Z,1008.57
2023-02-19T05:19:05.869Z,1008.54
2023-02-19T05:20:05.880Z,1008.51
2023-02-19T05:21:05.886Z,1008.43
2023-02-19T05:22:05.944Z,1008.48
2023-02-19T05:23:05.903Z,1008.45
2023-02-19T05:24:05.911Z,1008.53
2023-02-19T05:25:05.930Z,1008.50
2023-02-19T05:26:05.957Z,1008.53
2023-02-19T05:27:05.938Z,1008.54
2023-02-19T05:28:05.944Z,1008.51
2023-02-19T05:29:05.954Z,1008.53
2023-02-19T05:30:06.000Z,1008.55
2023-02-19T05:31:05.990Z,1008.55
2023-02-19T05:32:05.987Z,1008.59
2023-02-19T05:33:05.987Z,1008.57
2023-02-19T05:34:05.992Z,1008.61
2023-02-19T05:35:06.002Z,1008.60
2023-02-19T05:36:06.010Z,1008.63
2023-02-19T05:37:06.019Z,1008.65
2023-02-19T05:38:06.026Z,1008.65
2023-02-19T05:39:06.039Z,1008.62
2023-02-19T05:40:06.046Z,1008.66
2023-02-19T05:41:06.060Z,1008.65
2023-02-19T05:42:06.061Z,1008.66
2023-02-19T05:43:06.097Z,1008.64
2023-02-19T05:44:06.080Z,1008.62
2023-02-19T05:45:06.096Z,1008.64
2023-02-19T05:46:06.131Z,1008.63
2023-02-19T05:47:06.105Z,1008.62
2023-02-19T05:48:06.123Z,1008.61
2023-02-19T05:49:06.137Z,1008.63
2023-02-19T05:50:06.144Z,1008.68
2023-02-19T05:51:06.151Z,1008.74
2023-02-19T05:52:06.145Z,1008.73
2023-02-19T05:53:06.154Z,1008.72
2023-02-19T05:54:06.165Z,1008.70
2023-02-19T05:55:06.192Z,1008.71
2023-02-19T05:56:06.194Z,1008.71
2023-02-19T05:57:06.226Z,1008.69
2023-02-19T05:58:06.206Z,1008.75
2023-02-19T05:59:06.203Z,1008.71
2023-02-19T06:00:06.214Z,1008.74
2023-02-19T06:01:06.226Z,1008.75
2023-02-19T06:02:06.237Z,1008.78
2023-02-19T06:03:06.245Z,1008.76
2023-02-19T06:04:06.285Z,1008.76
2023-02-19T06:05:06.259Z,1008.79
2023-02-19T06:06:06.265Z,1008.79
2023-02-19T06:07:06.273Z,1008.78
2023-02-19T06:08:06.283Z,1008.77
2023-02-19T06:09:06.291Z,1008.79
2023-02-19T06:10:06.300Z,1008.80
2023-02-19T06:11:06.311Z,1008.84
2023-02-19T06:12:06.316Z,1008.84
2023-02-19T06:13:06.336Z,1008.86
2023-02-19T06:14:06.336Z,1008.87
2023-02-19T06:15:06.343Z,1008.89
2023-02-19T06:16:06.383Z,1008.84
2023-02-19T06:17:06.356Z,1008.87
2023-02-19T06:18:06.366Z,1008.90
2023-02-19T06:19:06.385Z,1008.85
2023-02-19T06:20:06.386Z,1008.91
2023-02-19T06:21:06.396Z,1008.89
2023-02-19T06:22:06.401Z,1008.87
2023-02-19T06:23:06.415Z,1008.84
2023-02-19T06:24:06.433Z,1008.81
2023-02-19T06:25:06.454Z,1008.85
2023-02-19T06:26:06.437Z,1008.83
2023-02-19T06:27:06.443Z,1008.81
2023-02-19T06:28:06.473Z,1008.81
2023-02-19T06:29:06.471Z,1008.80
2023-02-19T06:30:06.553Z,1008.77
2023-02-19T06:31:06.508Z,1008.77
2023-02-19T06:32:06.532Z,1008.82
2023-02-19T06:33:06.503Z,1008.85
2023-02-19T06:34:06.517Z,1008.92
2023-02-19T06:35:06.520Z,1008.96
2023-02-19T06:36:06.526Z,1009.00
2023-02-19T06:37:06.539Z,1009.05
2023-02-19T06:38:06.543Z,1009.08
2023-02-19T06:39:06.558Z,1009.14
2023-02-19T06:40:06.572Z,1009.18
2023-02-19T06:41:06.573Z,1009.21
2023-02-19T06:42:06.584Z,1009.23
2023-02-19T06:43:06.589Z,1009.23
2023-02-19T06:44:06.617Z,1009.29
2023-02-19T06:45:06.614Z,1009.27
2023-02-19T06:46:06.612Z,1009.30
2023-02-19T06:47:06.628Z,1009.31
2023-02-19T06:48:06.638Z,1009.40
2023-02-19T06:49:06.644Z,1009.46
2023-02-19T06:50:06.653Z,1009.50
2023-02-19T06:51:06.665Z,1009.51
2023-02-19T06:52:06.680Z,1009.55
2023-02-19T06:53:06.691Z,1009.57
2023-02-19T06:54:06.688Z,1009.62
2023-02-19T06:55:06.697Z,1009.67
2023-02-19T06:56:06.709Z,1009.66
2023-02-19T06:57:06.722Z,1009.61
2023-02-19T06:58:06.723Z,1009.65
2023-02-19T06:59:06.731Z,1009.64
2023-02-19T07:00:06.746Z,1009.68
2023-02-19T07:01:06.782Z,1009.71
2023-02-19T07:02:06.764Z,1009.74
2023-02-19T07:03:06.765Z,1009.73
2023-02-19T07:04:06.794Z,1009.76
2023-02-19T07:05:06.783Z,1009.76
2023-02-19T07:06:06.796Z,1009.76
2023-02-19T07:07:06.801Z,1009.83
2023-02-19T07:08:06.810Z,1009.84
2023-02-19T07:09:06.821Z,1009.84
2023-02-19T07:10:06.828Z,1009.83
2023-02-19T07:11:06.843Z,1009.85
2023-02-19T07:12:06.846Z,1009.82
2023-02-19T07:13:06.853Z,1009.80
2023-02-19T07:14:06.861Z,1009.84
2023-02-19T07:15:06.872Z,1009.87
2023-02-19T07:16:06.901Z,1009.89
2023-02-19T07:17:06.891Z,1009.87
2023-02-19T07:18:06.897Z,1009.92
2023-02-19T07:19:06.907Z,1009.91
2023-02-19T07:20:06.916Z,1009.93
2023-02-19T07:21:06.934Z,1009.96
2023-02-19T07:22:06.935Z,1010.03
2023-02-19T07:23:06.944Z,1010.00
2023-02-19T07:24:06.957Z,1010.04
2023-02-19T07:25:06.965Z,1010.08
2023-02-19T07:26:06.974Z,1010.12
2023-02-19T07:27:06.980Z,1010.09
2023-02-19T07:28:06.991Z,1010.09
2023-02-19T07:29:07.001Z,1010.08
2023-02-19T07:30:07.064Z,1010.13
2023-02-19T07:31:07.049Z,1010.09
2023-02-19T07:32:07.059Z,1010.09
2023-02-19T07:33:09.374Z,1010.13
2023-02-19T07:34:07.054Z,1010.17
2023-02-19T07:35:07.057Z,1010.14
2023-02-19T07:36:07.066Z,1010.17
2023-02-19T07:37:07.076Z,1010.17
2023-02-19T07:38:07.102Z,1010.18
2023-02-19T07:39:09.211Z,1010.19
2023-02-19T07:40:07.110Z,1010.23
2023-02-19T07:41:07.134Z,1010.26
2023-02-19T07:42:07.128Z,1010.28
2023-02-19T07:43:07.137Z,1010.29
2023-02-19T07:44:07.160Z,1010.27
2023-02-19T07:45:07.157Z,1010.25
2023-02-19T07:46:07.181Z,1010.27
2023-02-19T07:47:07.184Z,1010.25
2023-02-19T07:48:07.189Z,1010.30
2023-02-19T07:49:07.233Z,1010.31
2023-02-19T07:50:07.205Z,1010.35
2023-02-19T07:51:07.215Z,1010.33
2023-02-19T07:52:07.225Z,1010.34
2023-02-19T07:53:07.237Z,1010.35
2023-02-19T07:54:07.245Z,1010.46
2023-02-19T07:55:07.256Z,1010.44
2023-02-19T07:56:07.266Z,1010.46
2023-02-19T07:57:07.275Z,1010.51
2023-02-19T07:58:07.285Z,1010.58
2023-02-19T07:59:07.294Z,1010.58
2023-02-19T08:00:07.323Z,1010.56
2023-02-19T08:01:07.430Z,1010.54
2023-02-19T08:02:07.323Z,1010.56
2023-02-19T08:03:07.364Z,1010.59
2023-02-19T08:04:07.350Z,1010.65
2023-02-19T08:05:07.358Z,1010.68
2023-02-19T08:06:07.377Z,1010.66
2023-02-19T08:07:07.371Z,1010.71
2023-02-19T08:08:07.384Z,1010.73
2023-02-19T08:09:07.393Z,1010.79
2023-02-19T08:10:07.408Z,1010.79
2023-02-19T08:11:07.409Z,1010.84
2023-02-19T08:12:07.422Z,1010.94
2023-02-19T08:13:07.432Z,1010.94
2023-02-19T08:14:07.441Z,1010.86
2023-02-19T08:15:07.447Z,1010.83
2023-02-19T08:16:18.423Z,1010.89
2023-02-19T08:17:07.497Z,1010.95
2023-02-19T08:18:07.476Z,1010.97
2023-02-19T08:19:07.482Z,1010.96
2023-02-19T08:20:07.492Z,1011.01
2023-02-19T08:21:07.530Z,1011.00
2023-02-19T08:22:07.515Z,1011.10
2023-02-19T08:23:07.523Z,1011.06
2023-02-19T08:24:07.540Z,1011.06
2023-02-19T08:25:07.542Z,1011.05
2023-02-19T08:26:07.553Z,1011.08
2023-02-19T08:27:07.568Z,1011.11
2023-02-19T08:28:07.570Z,1011.19
2023-02-19T08:29:07.577Z,1011.22
2023-02-19T08:30:07.613Z,1011.26
2023-02-19T08:31:07.730Z,1011.22
2023-02-19T08:32:07.655Z,1011.25
2023-02-19T08:33:07.633Z,1011.30
2023-02-19T08:34:07.624Z,1011.33
2023-02-19T08:35:07.635Z,1011.38
2023-02-19T08:36:07.647Z,1011.38
2023-02-19T08:37:07.652Z,1011.41
2023-02-19T08:38:07.666Z,1011.41
2023-02-19T08:39:07.675Z,1011.50
2023-02-19T08:40:07.684Z,1011.47
2023-02-19T08:41:07.698Z,1011.49
2023-02-19T08:42:07.701Z,1011.50
2023-02-19T08:43:07.720Z,1011.55
2023-02-19T08:44:07.722Z,1011.59
2023-02-19T08:45:07.736Z,1011.55
2023-02-19T08:46:07.779Z,1011.59
2023-02-19T08:47:07.745Z,1011.62
2023-02-19T08:48:07.754Z,1011.64
2023-02-19T08:49:07.765Z,1011.63
2023-02-19T08:50:07.777Z,1011.76
2023-02-19T08:51:07.788Z,1011.71
2023-02-19T08:52:07.793Z,1011.66
2023-02-19T08:53:07.802Z,1011.69
2023-02-19T08:54:07.810Z,1011.72
2023-02-19T08:55:07.835Z,1011.78
2023-02-19T08:56:07.829Z,1011.74
2023-02-19T08:57:07.839Z,1011.77
2023-02-19T08:58:07.849Z,1011.80
2023-02-19T08:59:07.870Z,1011.78
2023-02-19T09:00:07.869Z,1011.79
2023-02-19T09:01:07.904Z,1011.77
2023-02-19T09:02:07.889Z,1011.80
2023-02-19T09:03:07.899Z,1011.82
2023-02-19T09:04:07.918Z,1011.82
2023-02-19T09:05:07.930Z,1011.86
2023-02-19T09:06:08.052Z,1011.84
2023-02-19T09:07:07.935Z,1011.83
2023-02-19T09:08:07.949Z,1011.91
2023-02-19T09:09:07.956Z,1011.95
2023-02-19T09:10:07.973Z,1011.99
2023-02-19T09:11:07.984Z,1011.99
2023-02-19T09:12:07.991Z,1012.03
2023-02-19T09:13:08.003Z,1011.97
2023-02-19T09:14:08.014Z,1012.02
2023-02-19T09:15:08.034Z,1011.94
2023-02-19T09:16:08.094Z,1012.03
2023-02-19T09:17:08.036Z,1011.94
2023-02-19T09:18:08.046Z,1011.88
2023-02-19T09:19:08.060Z,1011.96
2023-02-19T09:20:08.077Z,1012.07
2023-02-19T09:21:08.077Z,1012.07
2023-02-19T09:22:08.091Z,1011.98
2023-02-19T09:23:08.106Z,1012.06
2023-02-19T09:24:08.118Z,1012.03
2023-02-19T09:25:08.123Z,1012.09
2023-02-19T09:26:08.166Z,1012.04
2023-02-19T09:27:08.145Z,1012.09
2023-02-19T09:28:08.154Z,1012.05
2023-02-19T09:29:08.165Z,1012.06
2023-02-19T09:30:08.226Z,1012.10
2023-02-19T09:31:08.358Z,1012.19
2023-02-19T09:32:08.212Z,1012.11
2023-02-19T09:33:08.205Z,1012.14
2023-02-19T09:34:08.225Z,1012.12
2023-02-19T09:35:08.232Z,1012.19
2023-02-19T09:36:08.236Z,1012.26
2023-02-19T09:37:08.250Z,1012.25
2023-02-19T09:38:08.265Z,1012.20
2023-02-19T09:39:08.269Z,1012.21
2023-02-19T09:40:08.282Z,1012.21
2023-02-19T09:41:08.403Z,1012.27
2023-02-19T09:42:08.302Z,1012.30
2023-02-19T09:43:08.311Z,1012.30
2023-02-19T09:44:08.326Z,1012.32
2023-02-19T09:45:08.337Z,1012.30
2023-02-19T09:46:08.353Z,1012.35
2023-02-19T09:47:08.359Z,1012.35
2023-02-19T09:48:08.364Z,1012.37
2023-02-19T09:49:08.411Z,1012.42
2023-02-19T09:50:08.394Z,1012.38
2023-02-19T09:51:08.433Z,1012.38
2023-02-19T09:52:08.409Z,1012.33
2023-02-19T09:53:08.423Z,1012.40
2023-02-19T09:54:08.433Z,1012.47
2023-02-19T09:55:08.443Z,1012.49
2023-02-19T09:56:08.451Z,1012.47
2023-02-19T09:57:08.465Z,1012.48
2023-02-19T09:58:08.474Z,1012.53
2023-02-19T09:59:08.484Z,1012.52
2023-02-19T10:00:10.623Z,1012.51
2023-02-19T10:01:08.612Z,1012.50
2023-02-19T10:02:08.517Z,1012.46
2023-02-19T10:03:08.528Z,1012.52
2023-02-19T10:04:08.549Z,1012.56
2023-02-19T10:05:08.568Z,1012.61
2023-02-19T10:06:11.298Z,1012.58
2023-02-19T10:07:08.571Z,1012.55
2023-02-19T10:08:08.583Z,1012.50
2023-02-19T10:09:08.595Z,1012.59
2023-02-19T10:10:08.603Z,1012.67
2023-02-19T10:11:08.707Z,1012.58
2023-02-19T10:12:10.133Z,1012.63
2023-02-19T10:13:08.639Z,1012.61
2023-02-19T10:14:08.648Z,1012.76
2023-02-19T10:15:08.660Z,1012.70
2023-02-19T10:16:08.709Z,1012.77
2023-02-19T10:17:08.684Z,1012.75
2023-02-19T10:18:11.132Z,1012.72
2023-02-19T10:19:08.704Z,1012.77
2023-02-19T10:20:08.715Z,1012.83
2023-02-19T10:21:09.039Z,1012.82
2023-02-19T10:22:08.739Z,1012.83
2023-02-19T10:23:08.754Z,1012.88
2023-02-19T10:24:08.762Z,1012.93
2023-02-19T10:25:08.774Z,1012.87
2023-02-19T10:26:08.787Z,1012.98
2023-02-19T10:27:08.796Z,1012.96
2023-02-19T10:28:08.806Z,1012.94
2023-02-19T10:29:08.819Z,1012.94
2023-02-19T10:30:08.884Z,1013.05
2023-02-19T10:31:08.994Z,1013.10
2023-02-19T10:32:08.867Z,1013.00
2023-02-19T10:33:08.885Z,1013.05
2023-02-19T10:34:08.875Z,1013.05
2023-02-19T10:35:08.885Z,1013.07
2023-02-19T10:36:08.896Z,1013.07
2023-02-19T10:37:08.908Z,1013.18
2023-02-19T10:38:08.918Z,1013.19
2023-02-19T10:39:08.943Z,1013.24
2023-02-19T10:40:08.943Z,1013.17
2023-02-19T10:41:09.100Z,1013.18
2023-02-19T10:42:08.963Z,1013.19
2023-02-19T10:43:08.974Z,1013.25
2023-02-19T10:44:08.985Z,1013.20
2023-02-19T10:45:08.997Z,1013.25
2023-02-19T10:46:09.033Z,1013.25
2023-02-19T10:47:09.019Z,1013.23
2023-02-19T10:48:09.035Z,1013.25
2023-02-19T10:49:09.048Z,1013.28
2023-02-19T10:50:09.053Z,1013.35
2023-02-19T10:51:09.215Z,1013.32
2023-02-19T10:52:09.078Z,1013.27
2023-02-19T10:53:09.085Z,1013.25
2023-02-19T10:54:09.099Z,1013.31
2023-02-19T10:55:09.110Z,1013.25
2023-02-19T10:56:09.122Z,1013.30
2023-02-19T10:57:09.131Z,1013.29
2023-02-19T10:58:09.142Z,1013.31
2023-02-19T10:59:09.152Z,1013.29
2023-02-19T11:00:09.174Z,1013.39
2023-02-19T11:01:09.417Z,1013.37
2023-02-19T11:02:09.189Z,1013.42
2023-02-19T11:03:09.199Z,1013.40
2023-02-19T11:04:09.250Z,1013.53
2023-02-19T11:05:09.216Z,1013.48
2023-02-19T11:06:09.235Z,1013.49
2023-02-19T11:07:09.244Z,1013.55
2023-02-19T11:08:09.255Z,1013.53
2023-02-19T11:09:09.265Z,1013.59
2023-02-19T11:10:09.275Z,1013.59
2023-02-19T11:11:09.623Z,1013.53
2023-02-19T11:12:09.655Z,1013.64
2023-02-19T11:13:09.309Z,1013.60
2023-02-19T11:14:09.320Z,1013.64
2023-02-19T11:15:09.336Z,1013.77
2023-02-19T11:16:09.368Z,1013.70
2023-02-19T11:17:09.364Z,1013.66
2023-02-19T11:18:09.373Z,1013.75
2023-02-19T11:19:09.377Z,1013.77
2023-02-19T11:20:09.389Z,1013.82
2023-02-19T11:21:09.630Z,1013.82
2023-02-19T11:22:09.414Z,1013.86
2023-02-19T11:23:09.423Z,1013.82
2023-02-19T11:24:09.435Z,1013.81
2023-02-19T11:25:09.445Z,1013.76
2023-02-19T11:26:09.458Z,1013.75
2023-02-19T11:27:09.468Z,1013.78
2023-02-19T11:28:09.484Z,1013.77
2023-02-19T11:29:09.493Z,1013.78
2023-02-19T11:30:09.584Z,1013.72
2023-02-19T11:31:10.319Z,1013.83
2023-02-19T11:32:09.847Z,1013.75
2023-02-19T11:33:09.548Z,1013.82
2023-02-19T11:34:09.551Z,1013.78
2023-02-19T11:35:09.569Z,1013.78
2023-02-19T11:36:09.576Z,1013.73
2023-02-19T11:37:09.590Z,1013.76
2023-02-19T11:38:09.603Z,1013.87
2023-02-19T11:39:09.614Z,1013.97
2023-02-19T11:40:09.626Z,1013.91
2023-02-19T11:41:09.875Z,1014.05
2023-02-19T11:42:09.656Z,1014.06
2023-02-19T11:43:09.660Z,1014.08
2023-02-19T11:44:09.678Z,1014.10
2023-02-19T11:45:09.687Z,1014.18
2023-02-19T11:46:09.692Z,1014.13
2023-02-19T11:47:09.706Z,1014.14
2023-02-19T11:48:09.726Z,1014.09
2023-02-19T11:49:09.730Z,1014.07
2023-02-19T11:50:09.741Z,1013.96
2023-02-19T11:51:10.000Z,1013.96
2023-02-19T11:52:09.764Z,1013.86
2023-02-19T11:53:09.775Z,1013.80
2023-02-19T11:54:09.786Z,1013.87
2023-02-19T11:55:09.796Z,1013.84
2023-02-19T11:56:09.806Z,1013.86
2023-02-19T11:57:09.818Z,1013.85
2023-02-19T11:58:09.828Z,1013.90
2023-02-19T11:59:09.839Z,1013.86
2023-02-19T12:00:09.855Z,1013.85
2023-02-19T12:01:10.157Z,1013.82
2023-02-19T12:02:09.893Z,1013.89
2023-02-19T12:03:09.893Z,1013.91
2023-02-19T12:04:09.900Z,1013.91
2023-02-19T12:05:09.976Z,1014.00